Sabine, Texas
Current Conditions -  °F | °C
As of 1:53 AM on Tuesday 21 Oct 2014 (Local Time) from KBPT Reporting Station
Clear Clear  
Wind Chill: 59°   Ceiling: Unl
Heat Index: 59°   Visibility: 10mi
Dew Point: 56°   Wind: 5mph
Humidity: 90%   Direction: 20°NNE
Pressure: 30.01"   Gusts: NA
Location:  29.7569°N, 94.1898°W
Report Text: KBPT 210653Z AUTO 02004KT 10SM CLR 15/13 A3001 RMK AO2 SLP161 T01500133
Loading
Personal Weather Stations






























Interactive Weather Map
Tropical Storm Tracking
New forecast layout! Learn more

10-Day Weather Forecast

Advertisements
Track Severe Weather on mobile